Time;durP1;ratioP1;P1;durP2;ratioP2;P2;SDS_P1;SDS_P2;PMS_P1;PMS_P2;Temp;Humidity;BMP_temperature;BMP_pressure;BME280_temperature;BME280_humidity;BME280_pressure;Samples;Min_cycle;Max_cycle;Signal;HPM_P1;HPM_P2
2022/12/12 00:00:12;;;;;;;;;44.00;37.25;;;;;0.33;64.34;100309.25;5020989;28;45230;-69
2022/12/12 00:02:39;;;;;;;;;44.50;36.00;;;;;0.23;65.00;100305.50;5020059;28;45669;-67
2022/12/12 00:05:06;;;;;;;;;32.25;31.25;;;;;1.17;64.73;100466.50;5002156;28;45533;-69
2022/12/12 00:07:31;;;;;;;;;31.50;28.00;;;;;1.16;65.46;100511.94;5019549;28;45293;-68
2022/12/12 00:09:57;;;;;;;;;38.75;31.75;;;;;1.40;65.73;100543.72;5019964;28;45305;-69
2022/12/12 00:12:22;;;;;;;;;40.67;33.33;;;;;1.16;65.85;100510.19;5019375;28;46686;-68
2022/12/12 00:14:47;;;;;;;;;27.67;22.67;;;;;-1.49;65.25;100062.06;5019238;28;45562;-68
2022/12/12 00:17:13;;;;;;;;;39.67;37.00;;;;;0.92;65.27;100456.66;5019626;28;45349;-66
2022/12/12 00:19:38;;;;;;;;;34.50;29.50;;;;;1.22;65.70;100509.00;5018267;28;45556;-68
2022/12/12 00:22:03;;;;;;;;;33.25;28.00;;;;;1.43;66.21;100556.66;5017718;28;49934;-68
2022/12/12 00:24:29;;;;;;;;;40.25;35.75;;;;;1.13;66.30;100504.28;5019362;28;45408;-68
2022/12/12 00:26:54;;;;;;;;;41.25;36.25;;;;;1.27;66.19;100514.78;5019534;28;45390;-69
2022/12/12 00:29:19;;;;;;;;;38.00;32.25;;;;;0.32;66.24;100361.63;5019514;28;45424;-68
2022/12/12 00:31:45;;;;;;;;;40.00;29.00;;;;;1.58;65.88;100539.16;5017929;28;49731;-68
2022/12/12 00:34:10;;;;;;;;;31.50;28.50;;;;;1.57;66.06;100535.69;5019696;28;45220;-68
2022/12/12 00:36:35;;;;;;;;;28.67;27.67;;;;;1.44;66.01;100538.22;5020426;28;45598;-68
2022/12/12 00:39:01;;;;;;;;;40.33;28.33;;;;;1.28;66.02;100479.81;5019675;28;45471;-68
2022/12/12 00:41:27;;;;;;;;;35.00;28.67;;;;;1.54;65.00;100522.78;5018906;28;45871;-69
2022/12/12 00:43:53;;;;;;;;;34.75;29.50;;;;;1.69;65.15;100589.16;5019184;28;45336;-69
2022/12/12 00:46:22;;;;;;;;;34.00;29.50;;;;;1.58;65.85;100567.97;5018902;28;45567;-68
2022/12/12 00:48:48;;;;;;;;;35.00;29.33;;;;;1.64;65.73;100559.78;5019122;28;45436;-68
2022/12/12 00:51:18;;;;;;;;;29.33;24.67;;;;;1.62;65.78;100552.00;5018689;28;45595;-67
2022/12/12 00:53:43;;;;;;;;;35.67;27.00;;;;;1.19;65.63;100470.72;5018817;28;45195;-68
2022/12/12 00:56:09;;;;;;;;;34.67;28.00;;;;;1.75;65.09;100578.28;5018925;28;45603;-68
2022/12/12 00:58:34;;;;;;;;;35.00;30.67;;;;;1.45;65.16;100521.56;5018936;28;45288;-69
2022/12/12 01:01:06;;;;;;;;;35.00;30.00;;;;;1.63;65.34;100568.56;5018707;28;46832;-67
2022/12/12 01:03:36;;;;;;;;;30.67;27.00;;;;;1.62;65.80;100554.63;5018932;28;45159;-68
2022/12/12 01:06:01;;;;;;;;;33.67;28.00;;;;;1.44;65.63;100540.84;5017372;28;45436;-68
2022/12/12 01:08:28;;;;;;;;;31.33;26.00;;;;;1.67;65.34;100562.19;5019231;28;45363;-68
2022/12/12 01:10:54;;;;;;;;;32.00;29.67;;;;;1.66;65.30;100568.38;5018493;28;46658;-68
2022/12/12 01:13:20;;;;;;;;;32.00;23.00;;;;;1.70;65.11;100564.63;5018582;28;45364;-69
2022/12/12 01:15:46;;;;;;;;;28.00;24.33;;;;;1.50;64.78;100511.66;5018167;28;45301;-69
2022/12/12 01:18:11;;;;;;;;;39.00;25.00;;;;;1.70;65.19;100554.16;5018690;28;45275;-69
2022/12/12 01:20:36;;;;;;;;;33.67;27.67;;;;;1.17;65.18;100463.88;5018365;28;46478;-67
2022/12/12 01:23:02;;;;;;;;;30.67;24.00;;;;;1.01;65.32;100453.50;5018646;28;45286;-68
2022/12/12 01:25:27;;;;;;;;;35.33;28.00;;;;;1.34;65.29;100518.72;5017457;28;45432;-67
2022/12/12 01:27:52;;;;;;;;;31.00;26.00;;;;;1.08;65.39;100482.78;5017563;28;45429;-69
2022/12/12 01:30:20;;;;;;;;;34.33;27.67;;;;;1.11;65.60;100477.34;5000309;28;46232;-68
2022/12/12 01:32:46;;;;;;;;;35.67;27.67;;;;;0.89;65.61;100460.28;5018080;28;45452;-68
2022/12/12 01:35:11;;;;;;;;;32.33;28.00;;;;;1.50;65.59;100566.66;5000352;28;45330;-69
2022/12/12 01:37:39;;;;;;;;;43.33;29.67;;;;;1.23;65.39;100534.25;5018397;28;45258;-68
2022/12/12 01:40:10;;;;;;;;;29.33;24.00;;;;;1.44;65.78;100564.41;5018055;28;45646;-68
2022/12/12 01:42:35;;;;;;;;;38.33;32.00;;;;;1.37;65.47;100552.59;5000076;28;45451;-68
2022/12/12 01:45:01;;;;;;;;;32.67;29.67;;;;;1.18;65.54;100528.41;5018026;28;45858;-68
2022/12/12 01:47:27;;;;;;;;;28.33;23.67;;;;;1.26;66.02;100534.06;5000721;28;45511;-67
2022/12/12 01:50:06;;;;;;;;;32.00;28.00;;;;;1.40;65.76;100568.16;5017867;28;45557;-69
2022/12/12 01:52:40;;;;;;;;;33.67;31.67;;;;;0.76;65.59;100448.84;5017725;28;45899;-68
2022/12/12 01:55:12;;;;;;;;;30.67;28.67;;;;;1.36;64.89;100529.13;5016499;28;45213;-68
2022/12/12 01:57:42;;;;;;;;;28.67;24.67;;;;;1.68;65.36;100596.19;5000109;28;45436;-67
2022/12/12 02:00:08;;;;;;;;;38.00;28.67;;;;;1.71;64.22;100592.53;5017539;28;46732;-67
2022/12/12 02:02:35;;;;;;;;;33.33;29.00;;;;;1.58;64.17;100555.72;5017603;28;45225;-68
2022/12/12 02:05:08;;;;;;;;;33.33;27.33;;;;;1.59;64.55;100564.41;5017758;28;45545;-67
2022/12/12 02:07:33;;;;;;;;;29.00;26.67;;;;;1.63;64.43;100585.13;5017963;28;45494;-68
2022/12/12 02:09:59;;;;;;;;;34.33;28.00;;;;;1.60;64.25;100584.44;5017573;28;46932;-68
2022/12/12 02:12:24;;;;;;;;;40.00;25.33;;;;;1.46;64.46;100551.22;5016412;28;46412;-68
2022/12/12 02:14:52;;;;;;;;;27.33;24.67;;;;;1.51;64.69;100581.44;5017419;28;45495;-68
2022/12/12 02:17:44;;;;;;;;;35.00;25.33;;;;;0.89;64.60;100451.59;5017936;28;45317;-67
2022/12/12 02:20:32;;;;;;;;;34.67;28.00;;;;;1.55;64.45;100561.13;5017284;28;46410;-68
2022/12/12 02:23:00;;;;;;;;;32.33;25.33;;;;;1.53;64.75;100569.09;4999367;28;45498;-69
2022/12/12 02:25:50;;;;;;;;;28.75;26.25;;;;;1.67;64.34;100576.16;5017332;28;45286;-67
2022/12/12 02:28:28;;;;;;;;;42.67;32.67;;;;;1.62;64.29;100569.50;5017729;28;45343;-68
2022/12/12 02:30:59;;;;;;;;;27.00;24.00;;;;;1.61;64.51;100566.03;5017736;28;45832;-67
2022/12/12 02:33:39;;;;;;;;;36.33;27.00;;;;;1.70;64.22;100562.00;5017486;28;45253;-69
2022/12/12 02:36:46;;;;;;;;;32.67;24.00;;;;;1.69;64.24;100568.19;5017257;28;45504;-69
2022/12/12 02:39:39;;;;;;;;;42.00;30.00;;;;;1.71;64.39;100566.31;5016721;28;45322;-69
2022/12/12 02:42:17;;;;;;;;;24.67;21.33;;;;;1.69;64.06;100562.94;5016995;28;45912;-67
2022/12/12 02:45:06;;;;;;;;;30.67;26.00;;;;;1.40;63.63;100513.16;4998168;28;45702;-67
2022/12/12 02:47:38;;;;;;;;;35.67;27.67;;;;;1.89;64.05;100578.31;5017164;28;45405;-68
2022/12/12 02:50:07;;;;;;;;;27.00;23.33;;;;;1.50;63.38;100511.66;5017225;28;45257;-68
2022/12/12 02:52:34;;;;;;;;;32.67;26.33;;;;;1.50;63.96;100505.56;5016939;28;45529;-68
2022/12/12 02:54:59;;;;;;;;;28.67;24.67;;;;;1.80;63.41;100550.91;5015617;28;45496;-67
2022/12/12 02:57:25;;;;;;;;;32.00;28.33;;;;;1.90;63.49;100563.44;5017240;28;45466;-67
2022/12/12 02:59:54;;;;;;;;;26.33;25.00;;;;;1.66;63.46;100500.25;5017210;28;45450;-69
2022/12/12 03:02:30;;;;;;;;;31.67;23.67;;;;;2.04;62.97;100560.81;5016703;28;45269;-69
2022/12/12 03:08:29;;;;;;;;;31.33;25.00;;;;;1.76;63.02;100512.69;5017138;28;45350;-69
2022/12/12 03:11:02;;;;;;;;;32.25;29.50;;;;;2.08;63.13;100573.66;5016867;28;45199;-69
2022/12/12 03:13:46;;;;;;;;;35.50;29.75;;;;;2.06;63.08;100562.41;5016450;28;46135;-66
2022/12/12 03:16:17;;;;;;;;;36.67;26.00;;;;;2.04;63.60;100561.66;5014994;28;45398;-69
2022/12/12 03:19:17;;;;;;;;;30.33;28.33;;;;;1.01;63.14;100376.75;5016851;28;45294;-68
2022/12/12 03:21:48;;;;;;;;;33.33;22.33;;;;;1.02;62.82;100378.44;5016802;28;45338;-69
2022/12/12 03:24:25;;;;;;;;;32.33;28.33;;;;;2.01;63.44;100551.38;5016509;28;47908;-68
2022/12/12 03:27:03;;;;;;;;;30.33;25.00;;;;;1.92;63.22;100527.47;5016457;28;45486;-66
2022/12/12 03:29:34;;;;;;;;;23.67;21.00;;;;;2.03;63.21;100556.50;5016702;28;45420;-69
2022/12/12 03:32:07;;;;;;;;;29.67;20.67;;;;;1.97;63.60;100520.16;5016808;28;45429;-68
2022/12/12 03:34:38;;;;;;;;;29.67;27.67;;;;;1.84;63.47;100504.38;5016461;28;46931;-68
2022/12/12 03:37:16;;;;;;;;;28.33;23.00;;;;;2.24;63.00;100551.72;5016548;28;45338;-68
2022/12/12 03:39:46;;;;;;;;;36.67;27.00;;;;;2.20;63.10;100555.44;5017108;28;45340;-68
2022/12/12 03:42:23;;;;;;;;;39.33;27.67;;;;;2.23;62.91;100563.16;5016577;28;45337;-68
2022/12/12 03:45:00;;;;;;;;;34.67;32.33;;;;;2.26;63.27;100563.81;5016181;28;46782;-69
2022/12/12 03:47:34;;;;;;;;;31.67;25.00;;;;;1.64;63.14;100468.06;5016288;28;45311;-69
2022/12/12 03:50:08;;;;;;;;;34.00;29.33;;;;;1.99;63.36;100503.41;5016776;28;45174;-69
2022/12/12 03:52:44;;;;;;;;;33.67;28.67;;;;;2.18;63.14;100562.56;4998613;28;45421;-67
2022/12/12 03:55:15;;;;;;;;;39.33;33.33;;;;;2.22;63.24;100571.97;5016514;28;46417;-68
2022/12/12 03:57:51;;;;;;;;;26.33;21.00;;;;;2.04;63.64;100543.31;5019637;28;45523;-69
2022/12/12 04:00:17;;;;;;;;;30.00;22.33;;;;;2.37;63.15;100582.31;5019704;28;45308;-68
2022/12/12 04:02:50;;;;;;;;;38.67;29.00;;;;;2.22;63.39;100566.72;5019849;28;45418;-68
2022/12/12 04:05:22;;;;;;;;;35.67;29.00;;;;;1.99;63.45;100545.34;5018185;28;46270;-68
2022/12/12 04:07:56;;;;;;;;;32.00;26.67;;;;;2.05;63.78;100545.00;5019595;28;45358;-68
2022/12/12 04:13:19;;;;;;;;;29.33;25.67;;;;;2.33;63.27;100604.44;5019720;28;45269;-68
2022/12/12 04:16:10;;;;;;;;;31.00;25.25;;;;;2.25;62.69;100587.50;5019011;28;45558;-68
2022/12/12 04:18:42;;;;;;;;;37.67;32.00;;;;;1.87;63.55;100533.00;5019488;28;45389;-68
2022/12/12 04:24:23;;;;;;;;;43.50;32.00;;;;;2.19;63.37;100578.22;5019645;28;46573;-67
2022/12/12 04:27:14;;;;;;;;;35.75;32.25;;;;;1.04;63.22;100390.50;5019861;28;45641;-68
2022/12/12 04:29:53;;;;;;;;;33.00;31.00;;;;;2.24;63.25;100593.69;5019249;28;45420;-69
2022/12/12 04:32:31;;;;;;;;;29.25;26.25;;;;;1.36;63.71;100453.16;5019207;28;45367;-68
2022/12/12 04:35:15;;;;;;;;;30.00;26.00;;;;;2.12;64.06;100593.50;5019361;28;45292;-66
2022/12/12 04:37:46;;;;;;;;;40.00;33.00;;;;;2.05;63.62;100597.44;5019379;28;46508;-68
2022/12/12 04:40:19;;;;;;;;;18.00;15.00;;;;;2.03;63.83;100588.81;5018975;28;45246;-68
2022/12/12 04:42:52;;;;;;;;;29.67;27.00;;;;;1.93;64.31;100573.72;5018904;28;45426;-69
2022/12/12 04:45:26;;;;;;;;;32.00;25.00;;;;;1.96;64.73;100599.75;5001174;28;45325;-67
2022/12/12 04:47:55;;;;;;;;;36.00;25.33;;;;;2.01;64.70;100601.19;5018907;28;45804;-68
2022/12/12 04:50:24;;;;;;;;;38.67;29.00;;;;;1.18;63.81;100470.81;5018736;28;45270;-68
2022/12/12 04:52:54;;;;;;;;;36.67;28.67;;;;;1.99;63.96;100608.28;5018819;28;45219;-69
2022/12/12 04:55:31;;;;;;;;;30.67;28.67;;;;;1.86;64.14;100564.56;5018845;28;45468;-67
2022/12/12 04:57:57;;;;;;;;;28.67;27.67;;;;;2.05;64.07;100594.81;5018623;28;46199;-67
2022/12/12 05:00:27;;;;;;;;;28.67;21.67;;;;;2.11;64.26;100597.06;5017129;28;45538;-69
2022/12/12 05:03:04;;;;;;;;;29.67;23.00;;;;;2.10;64.33;100602.41;5000878;28;45319;-69
2022/12/12 05:05:37;;;;;;;;;29.33;27.33;;;;;2.17;63.58;100589.75;5000889;28;45516;-68
2022/12/12 05:08:31;;;;;;;;;27.00;24.67;;;;;2.09;64.46;100588.44;5017551;28;46820;-67
2022/12/12 05:10:59;;;;;;;;;33.67;30.67;;;;;1.88;62.98;100546.97;5010707;28;45265;-70
2022/12/12 05:13:31;;;;;;;;;39.75;28.50;;;;;2.09;63.80;100608.56;5017046;28;45482;-69
2022/12/12 05:16:00;;;;;;;;;33.67;30.33;;;;;2.06;64.11;100593.88;5018383;28;45483;-68
2022/12/12 05:18:25;;;;;;;;;32.75;23.25;;;;;2.16;63.90;100598.53;5018499;28;45464;-70
2022/12/12 05:20:51;;;;;;;;;31.67;28.67;;;;;2.19;63.27;100604.44;5018144;28;45297;-68
2022/12/12 05:23:16;;;;;;;;;36.67;31.67;;;;;1.89;63.22;100580.94;5018223;28;45503;-67
2022/12/12 05:25:41;;;;;;;;;33.67;29.33;;;;;1.80;63.99;100557.88;5018638;28;45263;-68
2022/12/12 05:28:07;;;;;;;;;32.33;28.67;;;;;1.56;63.76;100493.88;5018221;28;46371;-68
2022/12/12 05:30:33;;;;;;;;;35.00;26.33;;;;;1.32;63.83;100452.50;5018280;28;45396;-68
2022/12/12 05:32:58;;;;;;;;;33.33;28.33;;;;;2.21;63.85;100580.78;5018371;28;45198;-68
2022/12/12 05:35:24;;;;;;;;;33.67;26.00;;;;;2.17;63.87;100584.50;5017069;28;45619;-67
2022/12/12 05:37:50;;;;;;;;;23.67;22.33;;;;;2.28;63.39;100590.78;5017969;28;45825;-69
2022/12/12 05:40:16;;;;;;;;;32.67;26.33;;;;;2.30;63.04;100577.56;5017973;28;45419;-68
2022/12/12 05:42:41;;;;;;;;;40.33;30.33;;;;;2.10;62.91;100558.66;5017063;28;45448;-69
2022/12/12 05:45:07;;;;;;;;;44.75;38.25;;;;;2.17;64.08;100574.84;5000389;28;45538;-68
2022/12/12 05:47:33;;;;;;;;;36.33;29.67;;;;;2.04;63.65;100559.03;4999989;28;48310;-69
2022/12/12 05:49:59;;;;;;;;;35.33;30.67;;;;;1.85;63.72;100537.50;4999704;28;45515;-68
2022/12/12 05:52:24;;;;;;;;;37.33;25.00;;;;;1.84;64.06;100551.56;4999762;28;48108;-69
2022/12/12 05:54:50;;;;;;;;;34.33;28.67;;;;;0.97;63.82;100390.94;5018156;28;45448;-69
2022/12/12 05:57:17;;;;;;;;;32.00;30.00;;;;;1.93;63.79;100550.97;5017474;28;46592;-68
2022/12/12 05:59:43;;;;;;;;;36.33;29.33;;;;;1.85;64.24;100549.78;5017768;28;45413;-68
2022/12/12 06:02:09;;;;;;;;;32.00;27.33;;;;;2.18;64.14;100609.78;5017351;28;45400;-67
2022/12/12 06:04:34;;;;;;;;;27.33;23.67;;;;;2.19;63.54;100608.84;5017895;28;45329;-68
2022/12/12 06:06:59;;;;;;;;;38.33;32.00;;;;;2.14;63.63;100606.50;4999233;28;51192;-69
2022/12/12 06:09:25;;;;;;;;;34.00;31.33;;;;;2.02;63.47;100581.06;5016542;28;45438;-68
2022/12/12 06:11:50;;;;;;;;;28.67;27.67;;;;;1.94;63.80;100563.16;5017864;28;45483;-69
2022/12/12 06:14:16;;;;;;;;;38.50;26.00;;;;;2.19;63.66;100599.19;5017764;28;45491;-70
2022/12/12 06:16:41;;;;;;;;;36.67;28.67;;;;;2.06;63.24;100570.28;5017359;28;45344;-69
2022/12/12 06:19:06;;;;;;;;;32.33;27.00;;;;;1.97;63.37;100555.09;5017916;28;45297;-69
2022/12/12 06:21:32;;;;;;;;;29.67;24.67;;;;;1.50;63.06;100459.25;5017997;28;45486;-68
2022/12/12 06:23:57;;;;;;;;;29.67;28.33;;;;;2.34;63.73;100593.00;5017978;28;45373;-69
2022/12/12 06:26:22;;;;;;;;;37.00;30.67;;;;;1.55;63.01;100460.75;5017389;28;45530;-69
2022/12/12 06:28:48;;;;;;;;;29.33;25.67;;;;;0.97;62.51;100373.44;5017100;28;45301;-68
2022/12/12 06:31:14;;;;;;;;;6.00;0.00;;;;;1.48;63.34;100476.84;5017340;28;45322;-69
2022/12/12 06:33:41;;;;;;;;;33.75;30.25;;;;;2.33;63.01;100596.56;5018347;28;45464;-68
2022/12/12 06:36:10;;;;;;;;;31.67;28.00;;;;;2.41;63.18;100617.94;5017997;28;46433;-68
2022/12/12 06:38:36;;;;;;;;;33.00;32.00;;;;;2.37;62.59;100597.22;5016559;28;45768;-68
2022/12/12 06:41:11;;;;;;;;;40.33;32.00;;;;;2.46;63.11;100609.78;5018708;28;45407;-69
2022/12/12 06:43:37;;;;;;;;;39.00;33.00;;;;;2.16;62.65;100567.06;5018805;28;45290;-69
2022/12/12 06:46:05;;;;;;;;;32.67;29.67;;;;;2.30;62.65;100603.78;5017371;28;45754;-67
2022/12/12 06:48:31;;;;;;;;;30.67;29.00;;;;;2.18;62.96;100586.19;5016821;28;45409;-70
2022/12/12 06:50:57;;;;;;;;;40.75;30.75;;;;;1.61;63.13;100500.53;5016908;28;45476;-68
2022/12/12 06:53:22;;;;;;;;;31.67;30.33;;;;;2.21;63.23;100597.34;5017250;28;45296;-67
2022/12/12 06:55:48;;;;;;;;;39.00;34.67;;;;;2.24;62.70;100606.81;5016849;28;46566;-70
2022/12/12 06:58:13;;;;;;;;;25.33;20.67;;;;;1.39;63.02;100466.91;5015623;28;45241;-68
2022/12/12 07:00:39;;;;;;;;;40.00;31.00;;;;;2.14;63.24;100596.00;5017406;28;45131;-69
2022/12/12 07:03:04;;;;;;;;;39.67;29.00;;;;;2.22;63.50;100608.69;5017162;28;45170;-68
2022/12/12 07:05:30;;;;;;;;;37.00;33.00;;;;;1.95;62.56;100549.09;5017466;28;45590;-68
2022/12/12 07:07:55;;;;;;;;;40.33;35.67;;;;;2.07;62.31;100569.34;5016749;28;45223;-66
2022/12/12 07:10:20;;;;;;;;;38.33;33.00;;;;;1.93;63.62;100566.72;5016661;28;45502;-68
2022/12/12 07:12:46;;;;;;;;;31.33;27.33;;;;;1.37;63.55;100481.03;4998821;28;45350;-67
2022/12/12 07:15:11;;;;;;;;;36.67;30.00;;;;;1.78;63.63;100549.28;5016242;28;50016;-75
2022/12/12 07:17:37;;;;;;;;;37.25;29.00;;;;;0.93;63.82;100426.91;4998767;28;45597;-69
2022/12/12 07:20:03;;;;;;;;;42.50;35.25;;;;;0.13;63.94;100314.78;5016618;28;45382;-68
2022/12/12 07:22:28;;;;;;;;;37.33;24.00;;;;;1.91;63.88;100615.78;5017059;28;45616;-68
2022/12/12 07:24:54;;;;;;;;;33.67;25.33;;;;;1.03;63.94;100475.19;4998430;28;47627;-71
2022/12/12 07:27:19;;;;;;;;;40.67;34.00;;;;;1.64;63.73;100583.34;5016763;28;45481;-69
2022/12/12 07:29:45;;;;;;;;;40.00;32.33;;;;;1.90;64.26;100626.34;4998643;28;45638;-67
2022/12/12 07:32:11;;;;;;;;;32.33;29.00;;;;;1.89;64.26;100645.63;5019986;28;45273;-67
2022/12/12 07:34:36;;;;;;;;;43.33;34.00;;;;;1.71;63.82;100616.13;5020145;28;45469;-66
2022/12/12 07:37:02;;;;;;;;;37.25;29.00;;;;;1.26;64.33;100544.53;5019725;28;45318;-68
2022/12/12 07:39:32;;;;;;;;;35.00;31.50;;;;;1.64;64.64;100635.75;5002253;28;45516;-70
2022/12/12 07:41:58;;;;;;;;;34.75;28.50;;;;;1.35;64.92;100571.94;5021425;28;45499;-68
2022/12/12 07:44:23;;;;;;;;;35.33;30.67;;;;;1.67;65.32;100635.56;5019687;28;45541;-73
2022/12/12 07:46:49;;;;;;;;;41.50;30.50;;;;;1.51;64.66;100602.41;5019274;28;54732;-69
2022/12/12 07:49:14;;;;;;;;;37.00;33.25;;;;;0.68;65.07;100469.38;5004424;28;45505;-69
2022/12/12 07:51:39;;;;;;;;;37.75;36.75;;;;;1.64;64.05;100622.66;5002648;28;45295;-71
2022/12/12 07:54:05;;;;;;;;;41.50;36.50;;;;;1.51;64.90;100617.28;5010713;28;48143;-70
2022/12/12 07:56:31;;;;;;;;;55.50;43.50;;;;;1.69;65.23;100631.09;4982745;28;45388;-73
2022/12/12 07:58:56;;;;;;;;;51.00;43.25;;;;;0.43;65.17;100408.94;5019242;28;45217;-70
2022/12/12 08:01:26;;;;;;;;;58.00;43.00;;;;;1.44;64.40;100580.13;5019924;28;45483;-70
2022/12/12 08:03:53;;;;;;;;;60.75;46.00;;;;;0.71;64.13;100453.50;5019196;28;46187;-71
2022/12/12 08:06:20;;;;;;;;;51.25;41.00;;;;;1.72;64.46;100638.75;5017793;28;45963;-72
2022/12/12 08:08:46;;;;;;;;;39.67;34.33;;;;;1.12;64.71;100547.09;5019431;28;45513;-69
2022/12/12 08:11:14;;;;;;;;;39.67;36.33;;;;;1.73;64.75;100650.94;5019997;28;45329;-70
2022/12/12 08:13:40;;;;;;;;;41.50;34.50;;;;;1.74;64.79;100663.09;5019427;28;46856;-70
2022/12/12 08:16:11;;;;;;;;;39.50;36.25;;;;;1.71;65.23;100660.66;5002204;28;46012;-70
2022/12/12 08:18:37;;;;;;;;;40.50;34.25;;;;;1.28;64.60;100589.81;5019755;28;45381;-72
2022/12/12 08:21:06;;;;;;;;;46.50;36.25;;;;;0.69;64.47;100497.22;5001816;28;45428;-71
2022/12/12 08:23:32;;;;;;;;;47.50;36.00;;;;;1.57;64.85;100632.63;5000619;28;48532;-68
2022/12/12 08:26:05;;;;;;;;;39.00;35.50;;;;;1.06;64.51;100553.53;5000679;28;57713;-72
2022/12/12 08:28:31;;;;;;;;;41.50;33.00;;;;;-0.93;64.58;100212.84;5000868;28;45440;-70
2022/12/12 08:30:57;;;;;;;;;46.50;34.50;;;;;1.30;64.26;100624.59;4999661;28;45555;-71
2022/12/12 08:33:22;;;;;;;;;45.00;36.50;;;;;0.64;64.28;100501.88;4999329;28;46111;-69
2022/12/12 08:35:47;;;;;;;;;48.75;36.50;;;;;1.64;64.33;100654.09;5009926;28;45416;-70
2022/12/12 08:38:13;;;;;;;;;47.25;39.00;;;;;1.59;64.27;100643.03;5021462;28;45314;-70
2022/12/12 08:40:40;;;;;;;;;44.50;40.00;;;;;1.72;63.64;100683.31;5020325;28;45608;-71
2022/12/12 08:43:06;;;;;;;;;51.50;41.50;;;;;1.70;63.52;100670.31;5017735;28;45628;-70
2022/12/12 08:45:31;;;;;;;;;51.50;39.75;;;;;1.03;64.46;100589.53;5019545;28;45529;-70
2022/12/12 08:47:57;;;;;;;;;49.50;40.75;;;;;1.17;64.11;100634.91;5018878;28;45491;-70
2022/12/12 08:50:22;;;;;;;;;39.25;35.25;;;;;1.03;64.60;100600.84;5019533;28;45340;-71
2022/12/12 08:52:48;;;;;;;;;36.25;33.00;;;;;1.52;64.29;100682.69;5018869;28;45745;-69
2022/12/12 08:55:13;;;;;;;;;44.50;37.75;;;;;1.57;64.08;100684.19;5019691;28;45568;-71
2022/12/12 08:57:38;;;;;;;;;41.75;34.25;;;;;1.34;64.28;100628.72;5020330;28;45333;-71
2022/12/12 09:00:04;;;;;;;;;48.00;40.25;;;;;1.79;63.58;100679.41;5018894;28;45516;-69
2022/12/12 09:02:30;;;;;;;;;53.33;39.67;;;;;1.23;63.79;100581.38;5019266;28;46500;-73
2022/12/12 09:04:55;;;;;;;;;53.25;39.50;;;;;1.66;63.01;100679.28;5020571;28;45237;-71
2022/12/12 09:07:20;;;;;;;;;49.50;37.75;;;;;1.27;63.38;100614.31;5020112;28;56943;-69
2022/12/12 09:09:46;;;;;;;;;45.50;38.00;;;;;1.70;63.63;100675.53;5019630;28;45353;-70
2022/12/12 09:12:11;;;;;;;;;41.75;35.50;;;;;1.17;63.10;100581.72;5019157;28;60540;-71
2022/12/12 09:14:36;;;;;;;;;52.50;37.50;;;;;1.79;63.15;100695.13;5017747;28;45330;-71
2022/12/12 09:17:02;;;;;;;;;43.75;35.50;;;;;1.81;63.04;100694.13;5019375;28;45383;-72
2022/12/12 09:19:27;;;;;;;;;50.25;40.25;;;;;1.66;62.88;100652.22;5001786;28;45507;-72
2022/12/12 09:21:53;;;;;;;;;48.00;38.00;;;;;1.60;62.94;100621.13;5019029;28;51360;-72
2022/12/12 09:24:18;;;;;;;;;44.25;37.25;;;;;2.16;62.90;100679.84;5018316;28;61148;-70
2022/12/12 09:26:44;;;;;;;;;44.00;38.00;;;;;2.11;61.93;100644.25;5001213;28;45389;-69
2022/12/12 09:29:10;;;;;;;;;52.00;39.67;;;;;2.30;61.56;100651.84;5016490;28;45285;-71
2022/12/12 09:31:35;;;;;;;;;45.00;32.00;;;;;2.36;61.02;100669.00;5010037;28;47547;-72
2022/12/12 09:34:00;;;;;;;;;41.00;35.00;;;;;1.38;61.32;100495.81;5018099;28;45451;-73
2022/12/12 09:36:26;;;;;;;;;52.25;41.50;;;;;2.55;61.27;100669.56;5018052;28;51944;-72
2022/12/12 09:38:51;;;;;;;;;46.50;35.50;;;;;2.43;60.78;100649.34;5017405;28;45484;-71
2022/12/12 09:41:19;;;;;;;;;37.50;35.00;;;;;2.17;60.88;100640.41;5018170;28;45644;-72
2022/12/12 09:43:48;;;;;;;;;42.50;35.25;;;;;2.38;61.01;100674.97;5000376;28;46126;-73
2022/12/12 09:46:30;;;;;;;;;54.25;39.00;;;;;1.71;60.73;100568.94;5018646;28;45470;-72
2022/12/12 09:49:06;;;;;;;;;45.75;40.25;;;;;2.31;61.37;100663.19;5017444;28;45503;-70
2022/12/12 09:51:32;;;;;;;;;45.75;38.50;;;;;1.45;61.00;100503.22;5018302;28;48819;-72
2022/12/12 09:53:57;;;;;;;;;53.75;38.00;;;;;1.37;60.61;100499.38;5000700;28;45519;-71
2022/12/12 09:56:34;;;;;;;;;45.75;39.25;;;;;2.28;60.99;100671.25;5018298;28;45502;-72
2022/12/12 09:59:15;;;;;;;;;48.50;39.50;;;;;1.91;60.55;100604.44;5018252;28;45519;-70
2022/12/12 10:02:01;;;;;;;;;46.00;38.25;;;;;1.65;60.69;100567.53;5018058;28;45562;-71
2022/12/12 10:04:38;;;;;;;;;53.25;41.25;;;;;0.93;60.90;100452.25;5017902;28;45421;-70
2022/12/12 10:07:16;;;;;;;;;42.25;37.50;;;;;1.33;60.50;100508.34;5019282;28;45508;-71
2022/12/12 10:10:07;;;;;;;;;47.50;37.50;;;;;2.33;60.29;100669.19;5023030;28;45254;-71
2022/12/12 10:12:33;;;;;;;;;51.50;43.00;;;;;2.38;60.21;100672.34;4999738;28;46949;-70
2022/12/12 10:15:06;;;;;;;;;42.25;36.75;;;;;2.23;60.06;100641.84;5017602;28;45412;-69
2022/12/12 10:17:39;;;;;;;;;48.50;40.25;;;;;2.09;60.10;100609.41;5017842;28;45514;-71
2022/12/12 10:20:13;;;;;;;;;57.50;42.75;;;;;2.31;60.25;100639.56;4999905;28;45592;-72
2022/12/12 10:22:48;;;;;;;;;53.25;41.00;;;;;2.37;59.91;100626.91;5015957;28;49385;-71
2022/12/12 10:25:33;;;;;;;;;60.00;44.50;;;;;2.38;60.16;100625.13;5016309;28;45309;-72
2022/12/12 10:28:30;;;;;;;;;47.25;40.25;;;;;2.49;59.70;100625.31;5016177;28;45195;-71
2022/12/12 10:31:42;;;;;;;;;45.75;37.00;;;;;2.32;59.52;100588.78;5000412;28;45260;-70
2022/12/12 10:34:16;;;;;;;;;48.00;36.50;;;;;2.69;58.91;100624.09;4955336;28;48950;-71
2022/12/12 10:36:45;;;;;;;;;51.00;40.00;;;;;2.74;59.25;100649.09;5006525;28;45227;-71
2022/12/12 10:39:32;;;;;;;;;58.25;44.25;;;;;2.66;59.58;100643.50;5016077;28;45428;-69
2022/12/12 10:42:00;;;;;;;;;55.50;43.75;;;;;1.73;58.80;100504.16;5014923;28;45661;-70
2022/12/12 10:44:25;;;;;;;;;48.00;41.00;;;;;2.49;58.72;100627.94;5017345;28;45424;-71
2022/12/12 10:47:05;;;;;;;;;54.75;41.25;;;;;2.69;58.78;100651.19;5017976;28;45556;-71
2022/12/12 10:49:31;;;;;;;;;50.00;40.00;;;;;1.70;58.68;100465.06;5017655;28;45245;-71
2022/12/12 10:52:01;;;;;;;;;49.33;40.33;;;;;2.34;58.32;100618.41;5017378;28;45331;-71
2022/12/12 10:54:30;;;;;;;;;53.25;38.25;;;;;2.45;58.69;100631.72;5017594;28;45716;-71
2022/12/12 10:57:09;;;;;;;;;44.75;39.50;;;;;2.26;58.78;100628.53;5017487;28;45435;-69
2022/12/12 10:59:44;;;;;;;;;42.00;36.75;;;;;2.32;58.83;100634.25;5017431;28;45476;-71
2022/12/12 11:02:30;;;;;;;;;51.00;39.75;;;;;2.40;58.80;100636.38;5019162;28;45313;-71
2022/12/12 11:04:58;;;;;;;;;51.00;38.75;;;;;1.86;59.35;100547.06;5019710;28;45801;-71
2022/12/12 11:07:24;;;;;;;;;48.50;39.75;;;;;2.45;59.71;100629.09;5021959;28;45340;-72
2022/12/12 11:09:49;;;;;;;;;47.00;40.50;;;;;2.44;59.06;100595.91;5022580;28;45203;-70
2022/12/12 11:12:15;;;;;;;;;47.00;38.50;;;;;1.42;58.86;100426.63;5023081;28;45226;-70
2022/12/12 11:14:52;;;;;;;;;52.75;40.00;;;;;2.55;58.70;100603.94;5021228;28;47889;-71
2022/12/12 11:17:29;;;;;;;;;43.75;38.50;;;;;2.54;58.72;100594.38;5003516;28;45497;-71
2022/12/12 11:19:57;;;;;;;;;30.50;26.00;;;;;2.41;59.37;100598.75;5022376;28;45368;-71
2022/12/12 11:22:24;;;;;;;;;57.50;43.75;;;;;1.71;58.87;100495.56;5022795;28;45235;-73
2022/12/12 11:24:51;;;;;;;;;54.00;40.50;;;;;2.08;59.78;100547.41;5020927;28;46592;-74
2022/12/12 11:27:21;;;;;;;;;43.50;36.00;;;;;2.08;58.66;100513.34;5019539;28;45453;-73
2022/12/12 11:29:50;;;;;;;;;45.25;37.25;;;;;-0.22;59.52;100147.00;5017353;28;45381;-70
2022/12/12 11:32:30;;;;;;;;;52.00;40.75;;;;;2.04;59.29;100539.84;5020576;28;45328;-70
2022/12/12 11:34:59;;;;;;;;;43.00;36.00;;;;;1.23;58.99;100397.25;5016589;28;46971;-71
2022/12/12 11:37:31;;;;;;;;;50.75;36.75;;;;;2.13;58.97;100545.34;5018350;28;45534;-71